Time;durP1;ratioP1;P1;durP2;ratioP2;P2;SDS_P1;SDS_P2;PMS_P1;PMS_P2;Temp;Humidity;BMP_temperature;BMP_pressure;BME280_temperature;BME280_humidity;BME280_pressure;Samples;Min_cycle;Max_cycle;Signal;HPM_P1;HPM_P2
2023/03/17 00:01:15;;;;;;;70.70;32.00;;;;;;;-0.84;64.25;100988.98;128778;1254;113324;-66
2023/03/17 00:04:20;;;;;;;79.50;33.90;;;;;;;-0.81;64.21;100990.04;129441;1261;127710;-66
2023/03/17 00:07:23;;;;;;;68.60;30.60;;;;;;;-0.79;64.74;100990.06;131462;1253;114754;-70
2023/03/17 00:10:26;;;;;;;66.90;31.30;;;;;;;-0.79;64.27;100993.05;131353;1254;114546;-68
2023/03/17 00:13:32;;;;;;;72.30;30.20;;;;;;;-0.77;64.57;100996.57;131635;1253;114547;-71
2023/03/17 00:16:41;;;;;;;64.40;30.50;;;;;;;-0.75;64.38;100996.77;131658;1257;113276;-71
2023/03/17 00:19:46;;;;;;;94.00;44.00;;;;;;;-0.75;64.07;100993.61;128664;1257;127811;-64
2023/03/17 00:22:51;;;;;;;79.90;39.60;;;;;;;-0.75;64.35;100993.96;128511;1260;115249;-67
2023/03/17 00:25:56;;;;;;;80.60;36.20;;;;;;;-0.75;64.12;100985.36;128819;1262;113838;-67
2023/03/17 00:28:59;;;;;;;68.80;34.30;;;;;;;-0.75;64.44;100986.24;131180;1253;114679;-65
2023/03/17 00:32:01;;;;;;;69.10;34.80;;;;;;;-0.76;64.52;100987.45;131641;1256;114976;-65
2023/03/17 00:35:15;;;;;;;65.10;31.20;;;;;;;-0.76;64.41;100992.36;131654;1253;114815;-65
2023/03/17 00:38:20;;;;;;;72.50;32.90;;;;;;;-0.76;64.14;100992.73;131635;1253;115282;-65
2023/03/17 00:41:25;;;;;;;61.30;30.60;;;;;;;-0.76;64.35;100991.50;131658;1256;114674;-66
2023/03/17 00:44:29;;;;;;;59.20;29.80;;;;;;;-0.78;64.21;100989.55;131636;1253;114111;-64
2023/03/17 00:47:32;;;;;;;65.10;28.80;;;;;;;-0.79;64.16;100989.89;131429;1254;113484;-64
2023/03/17 00:50:35;;;;;;;57.40;30.00;;;;;;;-0.80;64.17;100979.70;130561;1253;128141;-65
2023/03/17 00:53:39;;;;;;;65.00;30.10;;;;;;;-0.82;64.10;100961.80;131566;1253;114694;-68
2023/03/17 00:56:43;;;;;;;62.50;29.00;;;;;;;-0.84;64.14;100955.50;128708;1254;115743;-70
2023/03/17 00:59:46;;;;;;;57.20;27.90;;;;;;;-0.84;63.92;100958.11;131141;1255;114453;-66
2023/03/17 01:02:51;;;;;;;63.60;27.50;;;;;;;-0.84;64.03;100961.97;131690;1253;113323;-72
2023/03/17 01:05:58;;;;;;;62.50;26.70;;;;;;;-0.84;64.04;100951.45;131608;1254;128905;-69
2023/03/17 01:09:02;;;;;;;58.50;24.60;;;;;;;-0.84;64.19;100931.11;131585;1253;115222;-71
2023/03/17 01:12:08;;;;;;;54.60;26.10;;;;;;;-0.83;64.37;100924.80;131658;1254;114686;-73
2023/03/17 01:15:13;;;;;;;54.50;24.00;;;;;;;-0.82;64.39;100925.15;131710;1254;113283;-65
2023/03/17 01:18:18;;;;;;;52.60;25.50;;;;;;;-0.81;64.11;100932.70;131444;1253;113451;-78
2023/03/17 01:21:22;;;;;;;51.20;21.30;;;;;;;-0.80;64.34;100930.42;128690;1254;127903;-74
2023/03/17 01:24:28;;;;;;;49.90;22.80;;;;;;;-0.79;64.51;100910.96;127690;1277;1191008;-76
2023/03/17 01:27:35;;;;;;;44.10;22.00;;;;;;;-0.77;64.62;100898.53;131751;1257;113192;-70
2023/03/17 01:30:38;;;;;;;48.90;20.70;;;;;;;-0.76;64.54;100894.33;131687;1254;114744;-66
2023/03/17 01:33:41;;;;;;;46.40;18.80;;;;;;;-0.74;64.25;100894.86;131656;1253;113134;-69
2023/03/17 01:36:44;;;;;;;50.30;19.70;;;;;;;-0.72;64.43;100902.77;131601;1254;114802;-71
2023/03/17 01:39:46;;;;;;;52.00;20.00;;;;;;;-0.71;64.48;100898.39;131628;1256;115404;-68
2023/03/17 01:42:53;;;;;;;44.60;18.70;;;;;;;-0.70;64.27;100900.50;131657;1253;113498;-74
2023/03/17 01:46:26;;;;;;;52.30;21.00;;;;;;;-0.68;64.48;100905.08;128737;1257;113360;-65
2023/03/17 01:49:37;;;;;;;46.40;20.10;;;;;;;-0.67;64.15;100903.34;131654;1253;115195;-69
2023/03/17 01:52:43;;;;;;;44.80;17.90;;;;;;;-0.65;64.34;100899.83;128680;1254;127906;-66
2023/03/17 01:55:46;;;;;;;40.90;17.60;;;;;;;-0.65;64.26;100888.44;131453;1253;115682;-65
2023/03/17 01:58:52;;;;;;;40.30;18.50;;;;;;;-0.65;64.38;100885.10;131443;1259;114794;-72
2023/03/17 02:02:04;;;;;;;49.80;18.80;;;;;;;-0.63;64.19;100888.45;128844;1256;113244;-64
2023/03/17 02:05:10;;;;;;;42.30;18.20;;;;;;;-0.63;64.17;100885.64;131459;1253;113252;-66
2023/03/17 02:08:15;;;;;;;38.80;16.70;;;;;;;-0.64;64.35;100887.56;131659;1254;127815;-67
2023/03/17 02:11:21;;;;;;;36.20;16.10;;;;;;;-0.65;64.26;100888.25;128376;1259;115254;-69
2023/03/17 02:14:24;;;;;;;45.00;18.50;;;;;;;-0.67;64.36;100881.94;131635;1254;114660;-69
2023/03/17 02:17:28;;;;;;;40.90;17.30;;;;;;;-0.69;64.55;100873.52;131421;1253;113279;-65
2023/03/17 02:20:33;;;;;;;36.80;17.90;;;;;;;-0.70;64.47;100877.70;129121;1253;113366;-70
2023/03/17 02:23:36;;;;;;;31.40;16.10;;;;;;;-0.70;64.67;100867.00;131688;1253;128820;-67
2023/03/17 02:26:39;;;;;;;35.70;17.50;;;;;;;-0.71;64.47;100855.23;131635;1253;114709;-75
2023/03/17 02:29:49;;;;;;;44.20;17.40;;;;;;;-0.70;64.50;100866.30;128573;1259;113371;-67
2023/03/17 02:32:52;;;;;;;30.60;16.20;;;;;;;-0.70;64.44;100869.98;131508;1253;113462;-75
2023/03/17 02:35:55;;;;;;;43.00;18.20;;;;;;;-0.69;64.28;100868.59;131659;1254;114833;-68
2023/03/17 02:38:57;;;;;;;42.10;18.30;;;;;;;-0.70;64.28;100865.25;131605;1257;114694;-68
2023/03/17 02:42:02;;;;;;;43.60;18.60;;;;;;;-0.69;64.42;100872.63;128772;1253;114862;-65
2023/03/17 02:45:10;;;;;;;37.80;18.50;;;;;;;-0.66;64.19;100874.23;129201;1253;114752;-64
2023/03/17 02:48:13;;;;;;;35.40;17.90;;;;;;;-0.67;64.32;100875.28;131676;1254;113183;-71
2023/03/17 02:51:16;;;;;;;30.00;15.80;;;;;;;-0.68;64.22;100880.17;131653;1253;113361;-67
2023/03/17 02:54:18;;;;;;;39.90;19.20;;;;;;;-0.70;64.18;100877.02;131647;1253;114652;-72
2023/03/17 02:57:21;;;;;;;42.00;19.40;;;;;;;-0.73;64.33;100870.14;131669;1253;114729;-63
2023/03/17 03:00:25;;;;;;;34.90;18.20;;;;;;;-0.78;63.79;100872.22;131638;1257;114707;-80
2023/03/17 03:03:28;;;;;;;40.20;18.60;;;;;;;-0.83;64.02;100874.48;131685;1253;113406;-78
2023/03/17 03:06:31;;;;;;;36.90;17.90;;;;;;;-0.88;64.30;100868.63;131666;1254;114750;-72
2023/03/17 03:09:35;;;;;;;42.10;17.80;;;;;;;-0.94;64.03;100870.36;131650;1253;115312;-66
2023/03/17 03:12:39;;;;;;;41.80;17.10;;;;;;;-0.99;64.13;100865.95;131701;1253;114816;-68
2023/03/17 03:15:42;;;;;;;36.60;17.70;;;;;;;-1.04;64.31;100868.54;131673;1253;114732;-68
2023/03/17 03:18:46;;;;;;;34.90;17.20;;;;;;;-1.09;64.26;100867.80;131754;1254;113884;-79
2023/03/17 03:21:49;;;;;;;37.10;17.10;;;;;;;-1.13;64.67;100866.01;131412;1253;113461;-77
2023/03/17 03:24:55;;;;;;;41.20;17.90;;;;;;;-1.17;64.37;100865.65;128664;1257;114965;-75
2023/03/17 03:27:57;;;;;;;37.80;17.40;;;;;;;-1.17;64.55;100863.89;131629;1254;114715;-72
2023/03/17 03:31:00;;;;;;;44.60;19.90;;;;;;;-1.16;65.07;100861.97;131688;1259;113214;-78
2023/03/17 03:34:06;;;;;;;39.70;19.00;;;;;;;-1.14;64.84;100860.05;128688;1257;114965;-64
2023/03/17 03:37:09;;;;;;;37.20;17.80;;;;;;;-1.11;65.22;100860.95;131688;1257;115363;-80
2023/03/17 03:40:17;;;;;;;37.90;16.90;;;;;;;-1.08;64.84;100859.21;132018;1248;114214;-62
2023/03/17 03:43:20;;;;;;;36.20;16.60;;;;;;;-1.05;65.49;100858.89;129989;1262;116540;-71
2023/03/17 03:46:23;;;;;;;34.20;15.70;;;;;;;-1.03;65.16;100851.55;129991;1256;114694;-76
2023/03/17 03:49:25;;;;;;;33.50;16.60;;;;;;;-0.97;65.33;100845.09;130014;1259;114868;-75
2023/03/17 03:52:27;;;;;;;39.30;16.70;;;;;;;-0.92;65.39;100840.21;129905;1262;115110;-68
2023/03/17 03:55:29;;;;;;;35.70;17.60;;;;;;;-0.89;65.40;100836.55;130296;1256;114788;-80
2023/03/17 03:58:31;;;;;;;37.00;16.50;;;;;;;-0.88;64.86;100839.89;129969;1260;114799;-80
2023/03/17 04:01:34;;;;;;;41.80;20.20;;;;;;;-0.88;65.11;100835.33;130001;1260;114663;-68
2023/03/17 04:04:36;;;;;;;30.70;14.70;;;;;;;-0.88;65.32;100823.75;130081;1262;114747;-74
2023/03/17 04:07:39;;;;;;;40.50;18.70;;;;;;;-0.90;65.54;100830.93;130078;1262;114709;-78
2023/03/17 04:10:42;;;;;;;44.10;18.90;;;;;;;-0.91;65.76;100827.77;129820;1276;114793;-64
2023/03/17 04:13:44;;;;;;;41.30;18.80;;;;;;;-0.94;65.49;100822.51;129696;1263;114807;-76
2023/03/17 04:16:47;;;;;;;36.20;17.00;;;;;;;-0.97;65.33;100833.70;129764;1256;114831;-65
2023/03/17 04:19:51;;;;;;;44.90;19.60;;;;;;;-0.99;65.30;100829.66;129865;1263;128096;-66
2023/03/17 04:22:53;;;;;;;37.90;18.90;;;;;;;-1.00;65.31;100820.54;129792;1260;115244;-65
2023/03/17 04:25:54;;;;;;;45.80;19.20;;;;;;;-1.02;65.91;100814.91;130097;1262;114722;-68
2023/03/17 04:29:00;;;;;;;40.50;19.80;;;;;;;-1.03;65.32;100816.83;129926;1261;114722;-68
2023/03/17 04:32:02;;;;;;;37.70;18.50;;;;;;;-1.03;65.30;100814.91;130061;1256;115894;-71
2023/03/17 04:35:08;;;;;;;43.20;18.80;;;;;;;-1.03;65.70;100826.30;129893;1256;115104;-65
2023/03/17 04:38:12;;;;;;;39.70;18.90;;;;;;;-1.03;65.78;100821.39;129922;1263;127593;-65
2023/03/17 04:41:15;;;;;;;41.50;17.70;;;;;;;-1.03;65.79;100821.56;129849;1262;114856;-67
2023/03/17 04:44:17;;;;;;;38.90;17.70;;;;;;;-1.04;65.48;100824.54;129891;1261;115272;-65
2023/03/17 04:47:20;;;;;;;39.80;18.50;;;;;;;-1.04;65.63;100832.24;129980;1261;114705;-66
2023/03/17 04:50:22;;;;;;;44.50;19.20;;;;;;;-1.04;65.92;100829.43;130000;1262;115419;-68
2023/03/17 04:53:27;;;;;;;40.50;20.10;;;;;;;-1.04;65.33;100826.64;130022;1256;114747;-71
2023/03/17 04:56:30;;;;;;;46.60;20.50;;;;;;;-1.04;65.72;100830.67;129743;1264;129205;-64
2023/03/17 04:59:32;;;;;;;44.20;21.20;;;;;;;-1.02;65.88;100826.13;130026;1262;114840;-73
2023/03/17 05:02:34;;;;;;;52.60;20.40;;;;;;;-1.01;65.69;100828.77;130010;1280;115241;-68
2023/03/17 05:05:36;;;;;;;54.10;21.60;;;;;;;-1.00;65.83;100831.75;130048;1261;114832;-65
2023/03/17 05:08:39;;;;;;;51.10;24.30;;;;;;;-0.99;65.57;100826.33;129900;1262;114695;-67
2023/03/17 05:11:41;;;;;;;50.50;21.10;;;;;;;-0.97;65.96;100819.50;130003;1256;115162;-67
2023/03/17 05:14:43;;;;;;;55.60;22.80;;;;;;;-0.95;65.69;100821.45;129983;1256;114813;-68
2023/03/17 05:17:45;;;;;;;57.20;24.00;;;;;;;-0.91;65.70;100820.75;130093;1263;130177;-66
2023/03/17 05:20:47;;;;;;;49.70;22.10;;;;;;;-0.87;66.40;100816.39;130065;1257;114793;-68
2023/03/17 05:23:49;;;;;;;49.30;21.50;;;;;;;-0.83;65.43;100817.84;129931;1262;114766;-67
2023/03/17 05:26:51;;;;;;;49.00;23.80;;;;;;;-0.78;65.71;100824.17;129985;1270;115247;-65
2023/03/17 05:29:53;;;;;;;51.60;24.50;;;;;;;-0.73;65.60;100821.20;129949;1260;114859;-69
2023/03/17 05:32:56;;;;;;;61.70;24.80;;;;;;;-0.68;65.59;100819.84;130010;1260;114735;-66
2023/03/17 05:35:58;;;;;;;53.60;25.20;;;;;;;-0.64;65.69;100817.92;129969;1262;114928;-74
2023/03/17 05:39:00;;;;;;;61.50;24.40;;;;;;;-0.59;65.80;100811.11;129986;1278;114801;-65
2023/03/17 05:42:02;;;;;;;45.90;23.00;;;;;;;-0.55;65.48;100811.84;130181;1256;115157;-65
2023/03/17 05:45:06;;;;;;;54.40;24.40;;;;;;;-0.51;65.76;100811.85;130115;1270;115383;-65
2023/03/17 05:48:08;;;;;;;57.40;24.50;;;;;;;-0.47;65.79;100811.67;129940;1263;115165;-67
2023/03/17 05:51:10;;;;;;;55.40;27.40;;;;;;;-0.43;65.76;100818.19;129713;1262;115473;-72
2023/03/17 05:54:12;;;;;;;57.20;25.00;;;;;;;-0.38;65.85;100822.23;130113;1262;114777;-65
2023/03/17 05:57:15;;;;;;;51.10;22.60;;;;;;;-0.32;65.72;100812.44;129981;1271;114756;-73
2023/03/17 06:00:20;;;;;;;49.20;22.40;;;;;;;-0.24;65.63;100807.56;129957;1260;114828;-69
2023/03/17 06:03:22;;;;;;;53.00;23.40;;;;;;;-0.15;65.61;100815.30;130099;1260;115144;-65
2023/03/17 06:06:24;;;;;;;57.80;23.30;;;;;;;-0.05;65.45;100817.95;129834;1278;115257;-67
2023/03/17 06:09:26;;;;;;;53.40;23.10;;;;;;;0.05;65.45;100807.09;130132;1270;115470;-70
2023/03/17 06:12:30;;;;;;;48.70;21.90;;;;;;;0.17;65.44;100810.11;129789;1263;114792;-64
2023/03/17 06:15:35;;;;;;;50.30;25.20;;;;;;;0.35;65.27;100806.60;129854;1263;114807;-64
2023/03/17 06:18:37;;;;;;;48.50;21.90;;;;;;;0.60;65.19;100795.02;130064;1257;128228;-67
2023/03/17 06:21:40;;;;;;;41.20;20.50;;;;;;;0.95;64.92;100794.96;129541;1256;115273;-66
2023/03/17 06:24:42;;;;;;;52.40;21.20;;;;;;;1.34;64.51;100801.55;130035;1260;114808;-69
2023/03/17 06:27:44;;;;;;;50.00;23.10;;;;;;;1.72;64.34;100794.87;129950;1262;114722;-68
2023/03/17 06:30:46;;;;;;;58.10;22.10;;;;;;;2.10;64.19;100795.51;129759;1265;114824;-66
2023/03/17 06:33:48;;;;;;;46.50;22.50;;;;;;;2.45;63.50;100790.51;129902;1260;114728;-70
2023/03/17 06:36:50;;;;;;;46.40;22.50;;;;;;;2.80;62.72;100785.79;129926;1260;114777;-66
2023/03/17 06:39:52;;;;;;;50.60;22.60;;;;;;;3.11;61.99;100785.83;130068;1262;128998;-70
2023/03/17 06:42:54;;;;;;;48.00;21.70;;;;;;;3.36;61.69;100784.14;130032;1260;114826;-68
2023/03/17 06:45:56;;;;;;;42.40;21.10;;;;;;;3.59;60.89;100789.85;129959;1257;114776;-69
2023/03/17 06:48:58;;;;;;;44.00;20.00;;;;;;;3.84;61.35;100796.23;129944;1262;114750;-66
2023/03/17 06:52:00;;;;;;;43.00;20.30;;;;;;;4.09;61.50;100791.81;130045;1263;114753;-69
2023/03/17 06:55:03;;;;;;;49.50;21.10;;;;;;;4.37;60.91;100790.49;130040;1262;115130;-66
2023/03/17 06:58:05;;;;;;;45.80;21.00;;;;;;;4.64;60.88;100788.13;129961;1263;114810;-69
2023/03/17 07:01:07;;;;;;;42.80;22.10;;;;;;;4.88;60.52;100784.15;130001;1279;128728;-66
2023/03/17 07:04:10;;;;;;;40.50;21.10;;;;;;;5.10;60.34;100782.88;129811;1270;114795;-70
2023/03/17 07:07:12;;;;;;;43.60;21.80;;;;;;;5.31;59.48;100779.08;130004;1262;114796;-70
2023/03/17 07:10:14;;;;;;;49.70;22.80;;;;;;;5.52;58.11;100780.42;129981;1262;115154;-67
2023/03/17 07:13:16;;;;;;;48.30;21.90;;;;;;;5.70;57.73;100782.73;129989;1260;114713;-71
2023/03/17 07:16:19;;;;;;;46.20;23.90;;;;;;;5.88;56.75;100779.48;130116;1263;115151;-71
2023/03/17 07:19:22;;;;;;;48.10;23.20;;;;;;;6.01;55.69;100778.87;129883;1263;115090;-68
2023/03/17 07:22:24;;;;;;;46.30;23.70;;;;;;;6.07;56.22;100780.69;130145;1262;114798;-66
2023/03/17 07:25:26;;;;;;;53.70;24.40;;;;;;;6.16;55.86;100784.38;129989;1271;115209;-70
2023/03/17 07:28:28;;;;;;;55.90;25.80;;;;;;;6.26;55.38;100788.59;129972;1258;114815;-69
2023/03/17 07:31:30;;;;;;;52.80;24.40;;;;;;;6.37;55.81;100787.62;130086;1262;114919;-70
2023/03/17 07:34:32;;;;;;;44.60;24.10;;;;;;;6.56;55.67;100785.00;130074;1274;115412;-66
2023/03/17 07:37:34;;;;;;;49.50;25.40;;;;;;;6.71;54.67;100782.33;130025;1270;114753;-72
2023/03/17 07:40:36;;;;;;;50.40;23.80;;;;;;;6.82;54.96;100775.48;130176;1270;114756;-68
2023/03/17 07:43:38;;;;;;;49.80;25.90;;;;;;;6.96;55.24;100776.53;129981;1264;128962;-67
2023/03/17 07:46:40;;;;;;;45.50;23.40;;;;;;;7.09;54.08;100772.43;130001;1262;114790;-70
2023/03/17 07:49:42;;;;;;;47.00;22.90;;;;;;;7.26;54.24;100764.53;130023;1258;114792;-73
2023/03/17 07:52:45;;;;;;;49.10;23.60;;;;;;;7.50;53.02;100763.12;130089;1269;114730;-67
2023/03/17 07:55:47;;;;;;;43.80;21.20;;;;;;;7.69;52.59;100757.58;130022;1271;114837;-67
2023/03/17 07:58:49;;;;;;;44.20;21.40;;;;;;;7.85;52.76;100754.60;130026;1256;115017;-68
2023/03/17 08:01:51;;;;;;;41.00;20.80;;;;;;;8.02;52.84;100751.59;130145;1280;114757;-69
2023/03/17 08:04:53;;;;;;;39.00;21.50;;;;;;;8.29;51.63;100755.52;129841;1270;115146;-67
2023/03/17 08:07:55;;;;;;;38.30;18.70;;;;;;;8.56;52.61;100755.02;129909;1270;115502;-66
2023/03/17 08:11:04;;;;;;;41.10;20.90;;;;;;;8.86;51.28;100741.16;130196;1263;114758;-65
2023/03/17 08:14:06;;;;;;;38.40;19.10;;;;;;;9.13;52.27;100742.55;129835;1270;114968;-65
2023/03/17 08:17:09;;;;;;;33.80;19.00;;;;;;;9.44;52.40;100745.50;130050;1280;114805;-67
2023/03/17 08:20:11;;;;;;;33.30;19.10;;;;;;;9.67;50.93;100744.60;129918;1260;114895;-67
2023/03/17 08:23:13;;;;;;;36.20;18.40;;;;;;;9.76;50.19;100735.73;130121;1257;117061;-65
2023/03/17 08:26:17;;;;;;;33.60;17.90;;;;;;;9.83;49.24;100732.06;129440;1279;127799;-65
2023/03/17 08:29:19;;;;;;;37.40;18.40;;;;;;;9.83;49.02;100727.06;130016;1273;115230;-66
2023/03/17 08:32:21;;;;;;;36.30;17.70;;;;;;;9.73;48.78;100724.43;129885;1270;115142;-68
2023/03/17 08:35:23;;;;;;;40.30;18.80;;;;;;;9.64;48.22;100729.05;129880;1270;115151;-66
2023/03/17 08:38:25;;;;;;;31.20;17.20;;;;;;;9.57;47.78;100722.89;130021;1262;114734;-66
2023/03/17 08:41:27;;;;;;;31.80;18.10;;;;;;;9.43;47.85;100722.88;129906;1280;114805;-66
2023/03/17 08:44:29;;;;;;;35.90;17.50;;;;;;;9.36;47.92;100725.64;130109;1263;114702;-66
2023/03/17 08:47:32;;;;;;;29.60;16.60;;;;;;;9.31;48.01;100714.25;130141;1269;128774;-68
2023/03/17 08:50:34;;;;;;;33.20;16.40;;;;;;;9.32;47.85;100716.16;129932;1279;115364;-67
2023/03/17 08:53:36;;;;;;;30.80;15.80;;;;;;;9.37;48.20;100716.01;129876;1270;114840;-66
2023/03/17 08:56:39;;;;;;;31.20;16.30;;;;;;;9.40;47.16;100710.19;130137;1261;114823;-67
2023/03/17 08:59:41;;;;;;;27.80;15.20;;;;;;;9.36;47.36;100712.47;129934;1258;114868;-67
2023/03/17 09:02:43;;;;;;;32.50;15.90;;;;;;;9.34;46.99;100716.09;130009;1269;114783;-67
2023/03/17 09:05:47;;;;;;;30.50;15.90;;;;;;;9.34;47.46;100728.56;129963;1270;115262;-65
2023/03/17 09:08:54;;;;;;;27.00;13.70;;;;;;;9.41;47.62;100735.25;129913;1279;114797;-68
2023/03/17 09:11:56;;;;;;;28.90;14.50;;;;;;;9.57;47.48;100728.78;129900;1260;114803;-65
2023/03/17 09:15:00;;;;;;;31.60;15.70;;;;;;;9.71;47.30;100728.59;129896;1265;114747;-67
2023/03/17 09:18:03;;;;;;;26.40;14.10;;;;;;;9.86;47.69;100725.35;129932;1270;115042;-66
2023/03/17 09:21:05;;;;;;;24.20;12.90;;;;;;;9.97;46.69;100721.87;129872;1280;114843;-67
2023/03/17 09:24:07;;;;;;;25.20;13.10;;;;;;;9.98;45.79;100725.05;129873;1256;114786;-66
2023/03/17 09:27:10;;;;;;;23.20;12.70;;;;;;;10.03;46.87;100724.86;129915;1278;114752;-66
2023/03/17 09:30:12;;;;;;;23.00;12.20;;;;;;;10.16;46.79;100734.13;129796;1271;114811;-65
2023/03/17 09:33:15;;;;;;;24.00;14.50;;;;;;;10.26;46.45;100737.10;129901;1268;116301;-67
2023/03/17 09:36:17;;;;;;;22.70;11.70;;;;;;;10.34;45.22;100740.18;130283;1257;114804;-66
2023/03/17 09:39:21;;;;;;;23.90;12.50;;;;;;;10.31;44.67;100725.46;130042;1279;114812;-66
2023/03/17 09:42:25;;;;;;;19.70;11.20;;;;;;;10.38;44.80;100706.83;130097;1258;127853;-66
2023/03/17 09:45:37;;;;;;;20.90;10.80;;;;;;;10.43;43.90;100692.54;129951;1270;114735;-65
2023/03/17 09:49:06;;;;;;;20.90;11.30;;;;;;;10.39;43.91;100690.35;129879;1270;114972;-69
2023/03/17 09:52:13;;;;;;;16.80;8.90;;;;;;;10.45;44.21;100700.98;130055;1260;114721;-67
2023/03/17 09:55:25;;;;;;;16.90;8.40;;;;;;;10.57;44.95;100707.45;130092;1264;114721;-67
2023/03/17 09:58:34;;;;;;;19.20;8.80;;;;;;;10.72;45.09;100723.80;129861;1270;128014;-66
2023/03/17 10:01:38;;;;;;;13.20;7.10;;;;;;;10.89;44.07;100720.71;130111;1264;115198;-66
2023/03/17 10:04:41;;;;;;;13.60;7.20;;;;;;;11.04;44.27;100701.86;129976;1270;114776;-67
2023/03/17 10:08:11;;;;;;;16.00;7.60;;;;;;;11.19;43.35;100694.00;130162;1270;114823;-66
2023/03/17 10:11:34;;;;;;;16.70;7.10;;;;;;;11.20;41.92;100699.14;129881;1260;114685;-67
2023/03/17 10:15:01;;;;;;;13.70;5.90;;;;;;;11.12;41.91;100702.89;130044;1270;128670;-66
2023/03/17 10:18:14;;;;;;;15.10;6.60;;;;;;;11.11;41.61;100697.59;129983;1261;115186;-65
2023/03/17 10:21:29;;;;;;;10.00;6.20;;;;;;;11.06;41.06;100692.27;129814;1257;115171;-65
2023/03/17 10:24:32;;;;;;;13.40;5.80;;;;;;;11.05;40.50;100692.14;129859;1279;114907;-65
2023/03/17 10:27:36;;;;;;;10.60;5.70;;;;;;;11.04;41.18;100687.70;129834;1257;114770;-68
2023/03/17 10:30:38;;;;;;;11.40;6.60;;;;;;;11.12;41.86;100678.97;129995;1279;127899;-65
2023/03/17 10:33:41;;;;;;;10.00;5.50;;;;;;;11.14;40.13;100672.08;129975;1263;114763;-67
2023/03/17 10:36:50;;;;;;;9.30;5.40;;;;;;;11.12;40.03;100666.09;129966;1261;114752;-69
2023/03/17 10:39:56;;;;;;;9.70;6.00;;;;;;;11.08;39.71;100671.80;130157;1264;114712;-66
2023/03/17 10:43:06;;;;;;;9.60;5.00;;;;;;;11.07;39.92;100677.73;130023;1260;114735;-66
2023/03/17 10:46:21;;;;;;;9.10;5.20;;;;;;;11.09;40.01;100676.06;130042;1261;128862;-66
2023/03/17 10:49:25;;;;;;;9.30;5.00;;;;;;;11.06;39.22;100677.98;129927;1257;115184;-67
2023/03/17 10:52:31;;;;;;;10.50;4.70;;;;;;;11.01;38.82;100678.55;129964;1261;114805;-65
2023/03/17 10:55:41;;;;;;;8.40;4.50;;;;;;;10.95;38.40;100673.45;130023;1269;114843;-66
2023/03/17 10:58:47;;;;;;;6.60;4.70;;;;;;;10.90;39.10;100661.91;129932;1277;115094;-66
2023/03/17 11:01:53;;;;;;;6.80;3.60;;;;;;;10.88;38.26;100657.36;129897;1261;129034;-66
2023/03/17 11:05:01;;;;;;;9.50;4.80;;;;;;;10.84;38.08;100656.26;130068;1280;115236;-66
2023/03/17 11:08:16;;;;;;;9.50;4.90;;;;;;;10.83;38.16;100637.75;130016;1262;114799;-70
2023/03/17 11:11:28;;;;;;;11.50;6.40;;;;;;;10.82;37.76;100629.38;129898;1261;114737;-67
2023/03/17 11:14:30;;;;;;;7.80;4.80;;;;;;;10.81;38.03;100610.66;129927;1260;114903;-67
2023/03/17 11:17:38;;;;;;;8.70;4.60;;;;;;;10.80;37.80;100596.04;129913;1267;114740;-66
2023/03/17 11:21:09;;;;;;;11.50;4.50;;;;;;;10.86;38.37;100591.13;129938;1261;115291;-67
2023/03/17 11:24:22;;;;;;;9.50;4.70;;;;;;;10.97;38.43;100597.26;129377;1270;115011;-66
2023/03/17 11:27:34;;;;;;;10.40;5.80;;;;;;;11.09;38.54;100598.66;129326;1270;114824;-66
2023/03/17 11:30:39;;;;;;;8.70;5.40;;;;;;;11.18;38.16;100591.79;129405;1286;114837;-66
2023/03/17 11:33:55;;;;;;;;;;;;;;;11.29;38.59;100585.19;129368;1286;129710;-66
2023/03/17 11:36:57;;;;;;;7.00;4.00;;;;;;;11.37;37.93;100580.14;129322;1269;116642;-67
2023/03/17 11:40:13;;;;;;;11.00;5.10;;;;;;;11.44;37.53;100579.50;129477;1269;114843;-66
2023/03/17 11:43:37;;;;;;;7.80;4.50;;;;;;;11.50;37.61;100573.29;129393;1267;114935;-66
2023/03/17 11:46:58;;;;;;;8.70;4.10;;;;;;;11.52;36.82;100563.33;129335;1267;114886;-68
2023/03/17 11:50:35;;;;;;;9.90;4.30;;;;;;;11.53;37.68;100554.18;129379;1269;128903;-67
2023/03/17 11:53:50;;;;;;;8.00;4.40;;;;;;;11.60;37.26;100544.37;129571;1267;114762;-65
2023/03/17 11:56:56;;;;;;;11.80;4.20;;;;;;;11.67;36.73;100549.91;129418;1286;114855;-66
2023/03/17 12:00:04;;;;;;;6.50;4.00;;;;;;;11.69;37.40;100542.45;129540;1261;114853;-68
2023/03/17 12:03:24;;;;;;;8.20;4.10;;;;;;;11.74;36.64;100545.27;129966;1257;114728;-68
2023/03/17 12:06:29;;;;;;;9.10;3.60;;;;;;;11.75;36.09;100539.70;129841;1264;128058;-66
2023/03/17 12:09:32;;;;;;;;;;;;;;;11.78;37.00;100529.13;130002;1260;114723;-69
2023/03/17 12:12:39;;;;;;;5.60;3.70;;;;;;;11.82;36.55;100526.40;130154;1264;114744;-69
2023/03/17 12:15:54;;;;;;;11.20;3.50;;;;;;;11.92;36.52;100513.41;130111;1260;114767;-68
2023/03/17 12:19:07;;;;;;;8.20;3.80;;;;;;;12.04;35.84;100513.00;129850;1262;114721;-67
2023/03/17 12:22:27;;;;;;;11.80;4.60;;;;;;;12.13;35.82;100500.89;129891;1280;128097;-67
2023/03/17 12:25:32;;;;;;;6.90;3.60;;;;;;;12.16;34.96;100496.25;129871;1258;115283;-67
2023/03/17 12:28:49;;;;;;;9.60;3.70;;;;;;;12.19;35.83;100486.05;129856;1257;114814;-67
2023/03/17 12:31:57;;;;;;;4.30;3.30;;;;;;;12.25;36.29;100483.23;130013;1260;114873;-68
2023/03/17 12:35:10;;;;;;;8.10;4.10;;;;;;;12.26;35.89;100471.86;130155;1273;114961;-68
2023/03/17 12:38:26;;;;;;;6.70;3.90;;;;;;;12.25;35.56;100467.48;129680;1260;128341;-67
2023/03/17 12:42:06;;;;;;;9.40;3.20;;;;;;;12.27;35.51;100477.41;129989;1257;116366;-67
2023/03/17 12:45:36;;;;;;;9.00;3.80;;;;;;;12.31;35.63;100479.70;129879;1260;114814;-68
2023/03/17 12:49:12;;;;;;;5.20;3.20;;;;;;;12.34;35.64;100483.30;129861;1258;114797;-67
2023/03/17 12:52:52;;;;;;;5.80;3.20;;;;;;;12.30;35.27;100481.18;129917;1260;115379;-66
2023/03/17 12:56:05;;;;;;;6.20;3.60;;;;;;;12.21;34.24;100474.86;129880;1279;128726;-65
2023/03/17 12:59:12;;;;;;;7.90;3.50;;;;;;;12.16;35.07;100474.05;129856;1260;116484;-66
2023/03/17 13:02:22;;;;;;;6.10;3.80;;;;;;;12.13;35.61;100468.45;129873;1279;114745;-67
2023/03/17 13:05:29;;;;;;;9.80;4.20;;;;;;;12.12;35.45;100464.39;129914;1260;114706;-66
2023/03/17 13:08:38;;;;;;;5.60;3.60;;;;;;;12.08;35.21;100466.96;130014;1279;114734;-68
2023/03/17 13:11:46;;;;;;;6.00;3.80;;;;;;;12.04;34.75;100462.87;129863;1260;128869;-67
2023/03/17 13:14:50;;;;;;;10.90;4.30;;;;;;;12.02;34.79;100459.94;129851;1257;115225;-67
2023/03/17 13:18:11;;;;;;;8.80;4.00;;;;;;;11.97;34.35;100458.16;130206;1277;114750;-66
2023/03/17 13:21:15;;;;;;;9.50;5.60;;;;;;;11.94;35.06;100459.05;129975;1261;114830;-68
2023/03/17 13:24:21;;;;;;;9.10;4.20;;;;;;;11.93;34.64;100463.58;129779;1260;266357;-68
2023/03/17 13:27:29;;;;;;;7.10;3.60;;;;;;;11.92;35.46;100453.05;129968;1260;129022;-66
2023/03/17 13:30:34;;;;;;;9.40;3.80;;;;;;;11.92;35.24;100452.34;129964;1258;115232;-64
2023/03/17 13:33:45;;;;;;;7.80;4.30;;;;;;;11.90;35.50;100453.00;129800;1264;114853;-65
2023/03/17 13:36:47;;;;;;;5.80;3.70;;;;;;;11.84;35.42;100445.59;129912;1256;114763;-66
2023/03/17 13:40:24;;;;;;;9.30;4.20;;;;;;;11.80;35.16;100439.20;130128;1270;115166;-65
2023/03/17 13:43:38;;;;;;;10.70;4.10;;;;;;;11.79;35.91;100428.48;130057;1260;129238;-65
2023/03/17 13:46:45;;;;;;;6.50;3.60;;;;;;;11.79;35.34;100427.44;130159;1261;115167;-66
2023/03/17 13:49:49;;;;;;;9.00;4.30;;;;;;;11.79;35.37;100423.48;130101;1261;115068;-67
2023/03/17 13:53:02;;;;;;;13.90;4.70;;;;;;;11.81;35.00;100423.05;129803;1257;115186;-67